Time;durP1;ratioP1;P1;durP2;ratioP2;P2;SDS_P1;SDS_P2;PMS_P1;PMS_P2;Temp;Humidity;BMP_temperature;BMP_pressure;BME280_temperature;BME280_humidity;BME280_pressure;Samples;Min_cycle;Max_cycle;Signal;HPM_P1;HPM_P2
2022/06/30 00:01:49;;;;;;;12.02;10.98;;;;;;;;;;5078553;28;20598;-60
2022/06/30 00:04:17;;;;;;;11.75;10.75;;;;;;;;;;5078317;28;20224;-59
2022/06/30 00:06:44;;;;;;;11.38;10.48;;;;;;;;;;5078277;28;20519;-59
2022/06/30 00:09:12;;;;;;;12.23;11.13;;;;;;;;;;5078346;28;20205;-59
2022/06/30 00:11:41;;;;;;;12.50;11.40;;;;;;;;;;5078305;28;20205;-60
2022/06/30 00:14:09;;;;;;;12.98;11.27;;;;;;;;;;5078751;28;20647;-59
2022/06/30 00:16:36;;;;;;;12.32;11.20;;;;;;;;;;5078141;28;20205;-59
2022/06/30 00:19:04;;;;;;;12.30;11.20;;;;;;;;;;5078528;28;20302;-59
2022/06/30 00:21:31;;;;;;;13.18;12.07;;;;;;;;;;5077978;28;20269;-59
2022/06/30 00:23:59;;;;;;;12.95;11.85;;;;;;;;;;5078021;28;20243;-59
2022/06/30 00:26:27;;;;;;;13.93;12.68;;;;;;;;;;5078071;28;20315;-59
2022/06/30 00:28:57;;;;;;;13.05;11.95;;;;;;;;;;5078330;28;20277;-59
2022/06/30 00:31:25;;;;;;;13.40;12.32;;;;;;;;;;5077255;28;20558;-59
2022/06/30 00:33:52;;;;;;;12.73;11.52;;;;;;;;;;5078307;28;20204;-59
2022/06/30 00:36:20;;;;;;;13.15;11.85;;;;;;;;;;5077950;28;20588;-60
2022/06/30 00:38:47;;;;;;;12.88;11.73;;;;;;;;;;5090438;28;20235;-59
2022/06/30 00:41:15;;;;;;;12.48;11.45;;;;;;;;;;5098114;28;20209;-60
2022/06/30 00:43:43;;;;;;;12.98;11.85;;;;;;;;;;5098067;28;20227;-59
2022/06/30 00:46:12;;;;;;;12.98;11.82;;;;;;;;;;5097998;28;20246;-59
2022/06/30 00:48:40;;;;;;;12.52;11.43;;;;;;;;;;5080453;28;20566;-59
2022/06/30 00:51:07;;;;;;;12.68;11.60;;;;;;;;;;5098394;28;20605;-59
2022/06/30 00:53:37;;;;;;;12.68;11.57;;;;;;;;;;5098137;28;20200;-59
2022/06/30 00:56:04;;;;;;;12.43;11.32;;;;;;;;;;5098266;28;20210;-59
2022/06/30 00:58:34;;;;;;;12.82;11.82;;;;;;;;;;5098292;28;20212;-59
2022/06/30 01:01:03;;;;;;;12.05;11.00;;;;;;;;;;5097672;28;20485;-59
2022/06/30 01:03:33;;;;;;;12.25;11.25;;;;;;;;;;5097703;28;20245;-59
2022/06/30 01:06:01;;;;;;;12.75;11.65;;;;;;;;;;5097832;28;20582;-59
2022/06/30 01:08:30;;;;;;;13.38;12.13;;;;;;;;;;5097971;28;20212;-59
2022/06/30 01:13:43;;;;;;;12.70;11.70;;;;;;;;;;5096734;28;20292;-59
2022/06/30 01:16:11;;;;;;;12.57;11.52;;;;;;;;;;5097958;28;20211;-59
2022/06/30 01:18:40;;;;;;;13.10;11.93;;;;;;;;;;5097578;28;20268;-59
2022/06/30 01:21:08;;;;;;;12.10;11.00;;;;;;;;;;5098199;28;20530;-59
2022/06/30 01:23:37;;;;;;;13.10;11.98;;;;;;;;;;5098089;28;20238;-59
2022/06/30 01:26:04;;;;;;;12.60;11.60;;;;;;;;;;5097792;28;20230;-59
2022/06/30 01:28:32;;;;;;;13.13;12.02;;;;;;;;;;5097620;28;20478;-59
2022/06/30 01:31:00;;;;;;;13.07;12.05;;;;;;;;;;5097740;28;20211;-59
2022/06/30 01:33:27;;;;;;;12.93;11.82;;;;;;;;;;5097512;28;20208;-59
2022/06/30 01:35:56;;;;;;;12.90;11.80;;;;;;;;;;5097308;28;20211;-59
2022/06/30 01:38:24;;;;;;;13.77;12.63;;;;;;;;;;5097697;28;20591;-59
2022/06/30 01:40:52;;;;;;;13.38;12.23;;;;;;;;;;5097801;28;20539;-59
2022/06/30 01:43:20;;;;;;;13.93;12.73;;;;;;;;;;5100148;28;20268;-59
2022/06/30 01:45:48;;;;;;;13.07;11.98;;;;;;;;;;5101259;28;20207;-59
2022/06/30 01:48:15;;;;;;;11.93;10.93;;;;;;;;;;5101983;28;20571;-59
2022/06/30 01:50:43;;;;;;;14.43;13.13;;;;;;;;;;5101699;28;20481;-59
2022/06/30 01:53:10;;;;;;;13.45;12.20;;;;;;;;;;5101377;28;20204;-59
2022/06/30 01:55:38;;;;;;;14.00;12.80;;;;;;;;;;5101261;28;20232;-59
2022/06/30 01:58:07;;;;;;;13.52;12.23;;;;;;;;;;5101957;28;20269;-59
2022/06/30 02:00:34;;;;;;;13.93;12.73;;;;;;;;;;5101269;28;20211;-59
2022/06/30 02:03:02;;;;;;;14.02;12.80;;;;;;;;;;5101427;28;20211;-59
2022/06/30 02:05:30;;;;;;;14.32;12.85;;;;;;;;;;5101109;28;20229;-59
2022/06/30 02:07:58;;;;;;;13.65;12.35;;;;;;;;;;5101188;28;20204;-60
2022/06/30 02:10:26;;;;;;;14.82;13.43;;;;;;;;;;5101660;28;20203;-59
2022/06/30 02:12:53;;;;;;;14.70;13.35;;;;;;;;;;5101168;28;20207;-60
2022/06/30 02:15:24;;;;;;;14.38;13.10;;;;;;;;;;5100689;28;20586;-59
2022/06/30 02:17:53;;;;;;;15.00;13.65;;;;;;;;;;5100036;28;20268;-59
2022/06/30 02:20:23;;;;;;;15.07;13.57;;;;;;;;;;5101265;28;20212;-59
2022/06/30 02:22:52;;;;;;;15.20;13.70;;;;;;;;;;5101303;28;20211;-59
2022/06/30 02:25:20;;;;;;;14.13;12.70;;;;;;;;;;5100372;28;20281;-60
2022/06/30 02:27:47;;;;;;;15.32;13.73;;;;;;;;;;5099987;28;20203;-59
2022/06/30 02:30:15;;;;;;;14.93;13.52;;;;;;;;;;5100898;28;20210;-59
2022/06/30 02:32:45;;;;;;;15.02;13.40;;;;;;;;;;5100724;28;20223;-59
2022/06/30 02:35:12;;;;;;;14.68;13.27;;;;;;;;;;5100624;28;20579;-59
2022/06/30 02:37:40;;;;;;;15.00;13.60;;;;;;;;;;5100224;28;20231;-59
2022/06/30 02:40:08;;;;;;;15.38;14.07;;;;;;;;;;5100655;28;20211;-59
2022/06/30 02:42:36;;;;;;;15.30;13.80;;;;;;;;;;5100393;28;20314;-59
2022/06/30 02:45:04;;;;;;;14.48;13.13;;;;;;;;;;5099898;28;20271;-63
2022/06/30 02:47:32;;;;;;;15.80;14.38;;;;;;;;;;5100533;28;20211;-59
2022/06/30 02:50:03;;;;;;;14.75;13.45;;;;;;;;;;5100645;28;20203;-59
2022/06/30 02:52:31;;;;;;;14.50;13.18;;;;;;;;;;5100187;28;20222;-59
2022/06/30 02:54:58;;;;;;;15.38;13.88;;;;;;;;;;5099733;28;20204;-59
2022/06/30 02:57:26;;;;;;;15.95;14.45;;;;;;;;;;5100311;28;20659;-59
2022/06/30 02:59:54;;;;;;;15.40;14.00;;;;;;;;;;5099595;28;20204;-59
2022/06/30 03:02:22;;;;;;;15.77;14.27;;;;;;;;;;5099465;28;20203;-59
2022/06/30 03:04:49;;;;;;;14.93;13.43;;;;;;;;;;5099475;28;20223;-59
2022/06/30 03:07:18;;;;;;;14.60;13.20;;;;;;;;;;5100285;28;20203;-59
2022/06/30 03:09:46;;;;;;;15.10;13.70;;;;;;;;;;5099809;28;20207;-59
2022/06/30 03:12:14;;;;;;;15.35;14.05;;;;;;;;;;5099057;28;20286;-59
2022/06/30 03:14:41;;;;;;;16.00;14.60;;;;;;;;;;5099692;28;20207;-59
2022/06/30 03:17:09;;;;;;;15.13;13.70;;;;;;;;;;5099840;28;20207;-60
2022/06/30 03:19:37;;;;;;;15.68;14.20;;;;;;;;;;5100244;28;20575;-59
2022/06/30 03:22:04;;;;;;;15.32;13.98;;;;;;;;;;5100325;28;20288;-59
2022/06/30 03:24:33;;;;;;;16.08;14.57;;;;;;;;;;5099671;28;20524;-59
2022/06/30 03:27:01;;;;;;;15.40;14.02;;;;;;;;;;5099544;28;20336;-59
2022/06/30 03:29:29;;;;;;;16.38;14.77;;;;;;;;;;5099679;28;20488;-59
2022/06/30 03:31:56;;;;;;;15.60;14.10;;;;;;;;;;5099441;28;20203;-59
2022/06/30 03:34:24;;;;;;;16.23;14.73;;;;;;;;;;5099366;28;20587;-59
2022/06/30 03:36:51;;;;;;;16.55;14.38;;;;;;;;;;5099255;28;20269;-59
2022/06/30 03:39:19;;;;;;;16.35;14.77;;;;;;;;;;5099053;28;20245;-59
2022/06/30 03:41:48;;;;;;;15.63;14.13;;;;;;;;;;5099093;28;20517;-60
2022/06/30 03:44:15;;;;;;;16.02;14.52;;;;;;;;;;5099084;28;20478;-59
2022/06/30 03:46:43;;;;;;;15.43;13.98;;;;;;;;;;5098427;28;20208;-58
2022/06/30 03:49:10;;;;;;;15.88;14.07;;;;;;;;;;5098745;28;20208;-59
2022/06/30 03:51:38;;;;;;;15.32;13.93;;;;;;;;;;5099068;28;20204;-59
2022/06/30 03:54:06;;;;;;;15.63;14.20;;;;;;;;;;5098827;28;20281;-59
2022/06/30 03:56:33;;;;;;;15.70;14.30;;;;;;;;;;5098250;28;20265;-59
2022/06/30 03:59:02;;;;;;;15.20;13.80;;;;;;;;;;5098799;28;20203;-59
2022/06/30 04:01:30;;;;;;;15.30;13.82;;;;;;;;;;5098665;28;20632;-59
2022/06/30 04:03:57;;;;;;;16.10;14.70;;;;;;;;;;5098986;28;20211;-59
2022/06/30 04:06:25;;;;;;;16.15;14.65;;;;;;;;;;5097483;28;20672;-59
2022/06/30 04:08:52;;;;;;;14.63;13.23;;;;;;;;;;5098037;28;20199;-59
2022/06/30 04:11:20;;;;;;;16.23;14.65;;;;;;;;;;5097850;28;20640;-59
2022/06/30 04:13:48;;;;;;;16.02;14.63;;;;;;;;;;5098026;28;20211;-59
2022/06/30 04:16:17;;;;;;;17.27;15.68;;;;;;;;;;5098062;28;20206;-59
2022/06/30 04:18:44;;;;;;;16.63;15.02;;;;;;;;;;5097731;28;20203;-59
2022/06/30 04:21:15;;;;;;;16.55;14.95;;;;;;;;;;5097879;28;20268;-59
2022/06/30 04:23:43;;;;;;;16.00;14.70;;;;;;;;;;5097886;28;20214;-59
2022/06/30 04:26:10;;;;;;;16.88;15.35;;;;;;;;;;5096888;28;20228;-59
2022/06/30 04:28:38;;;;;;;15.45;14.05;;;;;;;;;;5097368;28;20211;-59
2022/06/30 04:33:52;;;;;;;15.85;14.35;;;;;;;;;;5096489;28;20194;-59
2022/06/30 04:36:20;;;;;;;16.08;14.57;;;;;;;;;;5097133;28;20203;-59
2022/06/30 04:38:47;;;;;;;16.23;14.75;;;;;;;;;;5097149;28;20232;-59
2022/06/30 04:41:26;;;;;;;14.95;13.65;;;;;;;;;;5096810;28;20208;-59
2022/06/30 04:43:54;;;;;;;16.00;14.60;;;;;;;;;;5096688;28;20574;-59
2022/06/30 04:46:22;;;;;;;16.23;14.82;;;;;;;;;;5095577;28;20296;-59
2022/06/30 04:48:49;;;;;;;16.15;14.77;;;;;;;;;;5095831;28;20204;-59
2022/06/30 04:51:18;;;;;;;15.57;14.23;;;;;;;;;;5095930;28;20234;-59
2022/06/30 04:53:46;;;;;;;15.20;13.95;;;;;;;;;;5096518;28;20211;-59
2022/06/30 04:56:14;;;;;;;15.90;14.60;;;;;;;;;;5077511;28;20199;-59
2022/06/30 04:58:41;;;;;;;14.82;13.57;;;;;;;;;;5096063;28;20203;-58
2022/06/30 05:01:09;;;;;;;14.63;13.23;;;;;;;;;;5096275;28;20212;-59
2022/06/30 05:03:37;;;;;;;14.75;13.52;;;;;;;;;;5095975;28;20214;-59
2022/06/30 05:06:09;;;;;;;14.15;13.05;;;;;;;;;;5095834;28;20230;-59
2022/06/30 05:08:38;;;;;;;13.90;12.80;;;;;;;;;;5095729;28;20214;-59
2022/06/30 05:11:05;;;;;;;13.93;12.80;;;;;;;;;;5095598;28;20203;-59
2022/06/30 05:13:33;;;;;;;14.35;13.20;;;;;;;;;;5095727;28;20200;-59
2022/06/30 05:16:00;;;;;;;13.57;12.48;;;;;;;;;;5095620;28;20503;-59
2022/06/30 05:18:28;;;;;;;14.13;12.93;;;;;;;;;;5097540;28;20261;-59
2022/06/30 05:20:55;;;;;;;14.50;13.35;;;;;;;;;;5098777;28;20203;-59
2022/06/30 05:23:23;;;;;;;14.95;13.75;;;;;;;;;;5099488;28;20203;-59
2022/06/30 05:28:38;;;;;;;14.85;13.55;;;;;;;;;;5099254;28;20199;-59
2022/06/30 05:31:05;;;;;;;13.90;12.70;;;;;;;;;;5098654;28;20207;-59
2022/06/30 05:33:33;;;;;;;13.77;12.68;;;;;;;;;;5098729;28;20289;-59
2022/06/30 05:36:00;;;;;;;13.50;12.40;;;;;;;;;;5097782;28;20203;-59
2022/06/30 05:38:28;;;;;;;12.38;11.48;;;;;;;;;;5099049;28;20263;-59
2022/06/30 05:40:57;;;;;;;14.07;12.98;;;;;;;;;;5098339;28;20253;-59
2022/06/30 05:43:25;;;;;;;13.65;12.60;;;;;;;;;;5099074;28;20274;-59
2022/06/30 05:45:55;;;;;;;13.00;12.00;;;;;;;;;;5099163;28;20506;-59
2022/06/30 05:48:23;;;;;;;13.13;11.82;;;;;;;;;;5097627;28;20211;-59
2022/06/30 05:50:50;;;;;;;12.95;11.95;;;;;;;;;;5097669;28;20218;-59
2022/06/30 05:53:18;;;;;;;13.15;12.15;;;;;;;;;;5096819;28;20200;-59
2022/06/30 05:55:45;;;;;;;12.65;11.65;;;;;;;;;;5097060;28;20210;-59
2022/06/30 05:58:15;;;;;;;12.75;11.75;;;;;;;;;;5096974;28;20204;-59
2022/06/30 06:00:42;;;;;;;12.80;11.90;;;;;;;;;;5095100;28;20294;-59
2022/06/30 06:03:10;;;;;;;13.57;12.48;;;;;;;;;;5096880;28;20199;-59
2022/06/30 06:05:37;;;;;;;13.32;12.23;;;;;;;;;;5097426;28;20233;-59
2022/06/30 06:08:06;;;;;;;12.55;11.55;;;;;;;;;;5096553;28;20200;-59
2022/06/30 06:10:34;;;;;;;12.20;11.30;;;;;;;;;;5095607;28;20210;-59
2022/06/30 06:13:02;;;;;;;12.30;11.40;;;;;;;;;;5095365;28;20207;-59
2022/06/30 06:15:31;;;;;;;12.30;11.38;;;;;;;;;;5095994;28;20200;-59
2022/06/30 06:17:59;;;;;;;12.43;11.52;;;;;;;;;;5096100;28;20200;-59
2022/06/30 06:20:26;;;;;;;11.88;10.88;;;;;;;;;;5097020;28;20211;-59
2022/06/30 06:22:54;;;;;;;12.40;11.45;;;;;;;;;;5097637;28;20199;-59
2022/06/30 06:25:22;;;;;;;12.82;11.82;;;;;;;;;;5095760;28;20219;-59
2022/06/30 06:30:33;;;;;;;11.98;11.02;;;;;;;;;;5093784;28;20620;-59
2022/06/30 06:33:01;;;;;;;12.73;11.63;;;;;;;;;;5094867;28;20393;-59
2022/06/30 06:35:28;;;;;;;12.20;11.20;;;;;;;;;;5095796;28;20264;-59
2022/06/30 06:37:56;;;;;;;12.63;11.63;;;;;;;;;;5095370;28;20308;-59
2022/06/30 06:40:24;;;;;;;12.27;11.27;;;;;;;;;;5093978;28;20714;-59
2022/06/30 06:42:52;;;;;;;11.50;10.50;;;;;;;;;;5095818;28;20249;-59
2022/06/30 06:45:20;;;;;;;12.30;11.30;;;;;;;;;;5096195;28;20234;-59
2022/06/30 06:47:49;;;;;;;12.27;11.27;;;;;;;;;;5096908;28;20238;-59
2022/06/30 06:50:16;;;;;;;12.68;11.68;;;;;;;;;;5095726;28;20210;-59
2022/06/30 06:52:44;;;;;;;12.05;11.15;;;;;;;;;;5096326;28;20223;-59
2022/06/30 06:55:11;;;;;;;12.65;11.75;;;;;;;;;;5095509;28;20199;-59
2022/06/30 06:57:43;;;;;;;12.77;11.77;;;;;;;;;;5096467;28;20265;-59
2022/06/30 07:00:11;;;;;;;12.50;11.50;;;;;;;;;;5095762;28;20215;-59
2022/06/30 07:02:39;;;;;;;12.00;11.00;;;;;;;;;;5096186;28;20204;-59
2022/06/30 07:05:09;;;;;;;12.32;11.35;;;;;;;;;;5077783;28;20200;-59
2022/06/30 07:07:37;;;;;;;12.07;11.07;;;;;;;;;;5096243;28;20269;-58
2022/06/30 07:10:06;;;;;;;12.82;11.82;;;;;;;;;;5095352;28;20196;-58
2022/06/30 07:12:34;;;;;;;12.75;11.68;;;;;;;;;;5095465;28;20204;-59
2022/06/30 07:15:01;;;;;;;12.05;11.05;;;;;;;;;;5095472;28;20207;-59
2022/06/30 07:17:29;;;;;;;12.55;11.55;;;;;;;;;;5094988;28;20245;-59
2022/06/30 07:19:56;;;;;;;12.77;11.77;;;;;;;;;;5096390;28;20518;-59
2022/06/30 07:22:25;;;;;;;12.90;11.80;;;;;;;;;;5095160;28;20203;-59
2022/06/30 07:24:53;;;;;;;12.35;11.35;;;;;;;;;;5095936;28;20204;-59
2022/06/30 07:27:21;;;;;;;12.13;11.23;;;;;;;;;;5094970;28;20231;-59
2022/06/30 07:29:48;;;;;;;11.82;10.75;;;;;;;;;;5095458;28;20211;-59
2022/06/30 07:32:16;;;;;;;12.00;11.10;;;;;;;;;;5095391;28;20269;-59
2022/06/30 07:34:43;;;;;;;12.27;11.30;;;;;;;;;;5094456;28;20206;-59
2022/06/30 07:37:11;;;;;;;12.30;11.27;;;;;;;;;;5094717;28;20582;-59
2022/06/30 07:39:40;;;;;;;12.75;11.70;;;;;;;;;;5095036;28;20304;-59
2022/06/30 07:42:08;;;;;;;12.65;11.55;;;;;;;;;;5094939;28;20594;-59
2022/06/30 07:44:37;;;;;;;12.10;11.00;;;;;;;;;;5095144;28;20200;-59
2022/06/30 07:47:04;;;;;;;11.30;10.40;;;;;;;;;;5095191;28;20502;-59
2022/06/30 07:49:32;;;;;;;12.30;11.30;;;;;;;;;;5096351;28;20208;-59
2022/06/30 07:52:00;;;;;;;11.43;10.43;;;;;;;;;;5095977;28;20204;-59
2022/06/30 07:54:27;;;;;;;11.15;10.32;;;;;;;;;;5094865;28;20230;-59
2022/06/30 07:56:56;;;;;;;11.68;10.52;;;;;;;;;;5094270;28;20192;-59
2022/06/30 07:59:24;;;;;;;10.40;9.63;;;;;;;;;;5094338;28;20204;-59
2022/06/30 08:01:51;;;;;;;9.98;9.18;;;;;;;;;;5094418;28;20539;-59
2022/06/30 08:04:19;;;;;;;10.48;9.75;;;;;;;;;;5092533;28;20204;-59
2022/06/30 08:06:46;;;;;;;10.73;9.93;;;;;;;;;;5092886;28;20346;-59
2022/06/30 08:09:14;;;;;;;11.32;10.30;;;;;;;;;;5093107;28;20492;-59
2022/06/30 08:11:41;;;;;;;11.32;10.32;;;;;;;;;;5094493;28;20264;-59
2022/06/30 08:14:10;;;;;;;10.18;9.48;;;;;;;;;;5093645;28;20364;-59
2022/06/30 08:16:38;;;;;;;9.98;9.00;;;;;;;;;;5094547;28;20575;-59
2022/06/30 08:19:06;;;;;;;11.23;10.43;;;;;;;;;;5094565;28;20625;-59
2022/06/30 08:21:33;;;;;;;10.48;9.57;;;;;;;;;;5094952;28;20599;-60
2022/06/30 08:24:01;;;;;;;10.73;9.73;;;;;;;;;;5094272;28;20200;-59
2022/06/30 08:26:32;;;;;;;10.38;9.57;;;;;;;;;;5094287;28;20234;-59
2022/06/30 08:29:00;;;;;;;10.55;9.75;;;;;;;;;;5094951;28;20268;-59
2022/06/30 08:31:31;;;;;;;10.55;9.68;;;;;;;;;;5095523;28;20495;-60
2022/06/30 08:33:58;;;;;;;11.82;10.73;;;;;;;;;;5094129;28;20203;-59
2022/06/30 08:36:26;;;;;;;11.60;10.60;;;;;;;;;;5093286;28;20200;-59
2022/06/30 08:38:54;;;;;;;11.73;10.73;;;;;;;;;;5093094;28;20231;-59
2022/06/30 08:44:07;;;;;;;11.20;10.10;;;;;;;;;;5093456;28;20577;-59
2022/06/30 08:46:38;;;;;;;10.70;9.88;;;;;;;;;;5092978;28;20276;-59
2022/06/30 08:49:06;;;;;;;11.05;10.05;;;;;;;;;;5092674;28;20395;-60
2022/06/30 08:51:36;;;;;;;10.65;9.65;;;;;;;;;;5093339;28;20214;-59
2022/06/30 08:54:04;;;;;;;9.77;9.02;;;;;;;;;;5092262;28;20302;-59
2022/06/30 08:56:32;;;;;;;9.75;8.77;;;;;;;;;;5093875;28;20265;-59
2022/06/30 08:59:00;;;;;;;9.63;8.90;;;;;;;;;;5093832;28;20340;-59
2022/06/30 09:01:28;;;;;;;9.70;8.88;;;;;;;;;;5092802;28;20298;-59
2022/06/30 09:03:58;;;;;;;9.50;8.75;;;;;;;;;;5094177;28;20295;-59
2022/06/30 09:06:25;;;;;;;9.30;8.52;;;;;;;;;;5092952;28;20235;-59
2022/06/30 09:08:53;;;;;;;9.07;8.38;;;;;;;;;;5093076;28;20655;-59
2022/06/30 09:11:21;;;;;;;9.18;8.48;;;;;;;;;;5093443;28;20573;-59
2022/06/30 09:13:49;;;;;;;9.32;8.52;;;;;;;;;;5092905;28;20204;-59
2022/06/30 09:16:17;;;;;;;9.07;8.38;;;;;;;;;;5092219;28;20256;-59
2022/06/30 09:18:45;;;;;;;8.93;8.18;;;;;;;;;;5092492;28;20203;-59
2022/06/30 09:21:18;;;;;;;9.43;8.50;;;;;;;;;;5092532;28;20411;-59
2022/06/30 09:23:46;;;;;;;9.30;8.40;;;;;;;;;;5092307;28;20218;-60
2022/06/30 09:26:19;;;;;;;9.13;8.43;;;;;;;;;;5092783;28;20230;-59
2022/06/30 09:28:47;;;;;;;9.57;8.60;;;;;;;;;;5092835;28;20290;-59
2022/06/30 09:31:15;;;;;;;10.07;9.20;;;;;;;;;;5091728;28;20195;-59
2022/06/30 09:33:47;;;;;;;9.68;8.88;;;;;;;;;;5091210;28;20280;-59
2022/06/30 09:36:23;;;;;;;8.25;7.57;;;;;;;;;;5092264;28;20203;-59
2022/06/30 09:39:00;;;;;;;8.88;8.07;;;;;;;;;;5092524;28;20235;-59
2022/06/30 09:41:29;;;;;;;9.38;8.57;;;;;;;;;;5092665;28;20203;-59
2022/06/30 09:43:57;;;;;;;10.30;9.38;;;;;;;;;;5092780;28;20207;-59
2022/06/30 09:46:24;;;;;;;9.93;9.02;;;;;;;;;;5093148;28;20250;-59
2022/06/30 09:48:52;;;;;;;9.85;8.73;;;;;;;;;;5091438;28;20285;-59
2022/06/30 09:51:20;;;;;;;9.40;8.63;;;;;;;;;;5091913;28;20204;-59
2022/06/30 09:54:02;;;;;;;9.85;8.85;;;;;;;;;;5091499;28;20204;-59
2022/06/30 09:56:31;;;;;;;9.20;8.50;;;;;;;;;;5091800;28;20459;-59
2022/06/30 09:58:59;;;;;;;9.55;8.80;;;;;;;;;;5091338;28;20214;-59
2022/06/30 10:01:27;;;;;;;9.80;9.00;;;;;;;;;;5092219;28;20200;-59
2022/06/30 10:04:00;;;;;;;9.45;8.63;;;;;;;;;;5093452;28;20210;-59
2022/06/30 10:06:28;;;;;;;8.95;8.23;;;;;;;;;;5097131;28;20253;-59
2022/06/30 10:08:56;;;;;;;8.95;8.15;;;;;;;;;;5094885;28;20246;-59
2022/06/30 10:11:24;;;;;;;8.88;8.18;;;;;;;;;;5093537;28;20583;-59
2022/06/30 10:13:53;;;;;;;8.93;8.32;;;;;;;;;;5094181;28;20204;-59
2022/06/30 10:16:22;;;;;;;8.65;8.05;;;;;;;;;;5094152;28;20632;-59
2022/06/30 10:18:50;;;;;;;8.30;7.70;;;;;;;;;;5093711;28;20594;-59
2022/06/30 10:21:18;;;;;;;8.23;7.63;;;;;;;;;;5093839;28;20237;-59
2022/06/30 10:23:46;;;;;;;8.70;8.10;;;;;;;;;;5093608;28;20272;-59
2022/06/30 10:28:56;;;;;;;8.77;7.88;;;;;;;;;;5093867;28;20269;-59
2022/06/30 10:31:26;;;;;;;8.18;7.57;;;;;;;;;;5095796;28;20605;-59
2022/06/30 10:33:58;;;;;;;7.82;7.32;;;;;;;;;;5095585;28;20203;-59
2022/06/30 10:36:27;;;;;;;8.75;8.00;;;;;;;;;;5094764;28;20363;-59
2022/06/30 10:38:58;;;;;;;8.60;7.80;;;;;;;;;;5094541;28;20239;-59
2022/06/30 10:41:26;;;;;;;8.65;7.80;;;;;;;;;;5094876;28;20210;-59
2022/06/30 10:44:14;;;;;;;8.43;7.82;;;;;;;;;;5094111;28;20499;-60
2022/06/30 10:46:57;;;;;;;8.52;7.72;;;;;;;;;;5094800;28;20219;-59
2022/06/30 10:49:26;;;;;;;8.57;7.45;;;;;;;;;;5091872;28;20222;-59
2022/06/30 10:51:58;;;;;;;8.65;7.93;;;;;;;;;;5094608;28;20614;-59
2022/06/30 10:54:29;;;;;;;8.82;8.00;;;;;;;;;;5093798;28;20204;-59
2022/06/30 10:56:57;;;;;;;8.45;7.85;;;;;;;;;;5085922;28;20537;-59
2022/06/30 10:59:29;;;;;;;8.13;7.47;;;;;;;;;;5074636;28;20461;-59
2022/06/30 11:02:15;;;;;;;8.25;7.65;;;;;;;;;;5074091;28;20657;-59
2022/06/30 11:04:47;;;;;;;8.23;7.53;;;;;;;;;;5074396;28;20200;-59
2022/06/30 11:07:15;;;;;;;8.00;7.38;;;;;;;;;;5073342;28;20224;-59
2022/06/30 11:10:06;;;;;;;8.32;7.72;;;;;;;;;;5073836;28;20203;-59
2022/06/30 11:12:56;;;;;;;8.00;7.40;;;;;;;;;;5074448;28;20200;-59
2022/06/30 11:15:25;;;;;;;8.40;7.80;;;;;;;;;;5073929;28;20254;-60
2022/06/30 11:17:54;;;;;;;8.82;8.02;;;;;;;;;;5073307;28;20211;-59
2022/06/30 11:20:23;;;;;;;8.15;7.45;;;;;;;;;;5072045;28;20353;-59
2022/06/30 11:22:52;;;;;;;8.25;7.55;;;;;;;;;;5073468;28;20204;-59
2022/06/30 11:28:12;;;;;;;8.15;7.55;;;;;;;;;;5073071;28;20501;-59
2022/06/30 11:30:40;;;;;;;7.68;7.18;;;;;;;;;;5073509;28;20204;-59
2022/06/30 11:33:07;;;;;;;8.52;7.85;;;;;;;;;;5072790;28;20211;-59
2022/06/30 11:35:36;;;;;;;8.77;8.00;;;;;;;;;;5073513;28;20311;-59
2022/06/30 11:38:04;;;;;;;8.82;8.13;;;;;;;;;;5072445;28;20225;-59
2022/06/30 11:40:32;;;;;;;8.13;7.43;;;;;;;;;;5072372;28;20219;-59
2022/06/30 11:43:00;;;;;;;9.00;8.27;;;;;;;;;;5072537;28;20224;-59
2022/06/30 11:45:29;;;;;;;8.90;8.20;;;;;;;;;;5073572;28;20487;-59
2022/06/30 11:47:57;;;;;;;8.93;8.23;;;;;;;;;;5073949;28;20230;-59
2022/06/30 11:50:26;;;;;;;8.48;7.78;;;;;;;;;;5072842;28;20216;-59
2022/06/30 11:52:57;;;;;;;8.25;7.55;;;;;;;;;;5072962;28;20637;-59
2022/06/30 11:55:26;;;;;;;9.10;8.30;;;;;;;;;;5073037;28;20224;-59
2022/06/30 11:57:54;;;;;;;7.97;7.38;;;;;;;;;;5073973;28;20269;-59
2022/06/30 12:00:23;;;;;;;7.40;6.80;;;;;;;;;;5072323;28;20248;-59
2022/06/30 12:02:51;;;;;;;8.02;7.15;;;;;;;;;;5073817;28;20204;-59
2022/06/30 12:05:20;;;;;;;7.88;7.13;;;;;;;;;;5080681;28;20703;-59
2022/06/30 12:07:48;;;;;;;7.00;6.47;;;;;;;;;;5093295;28;20761;-59
2022/06/30 12:10:21;;;;;;;7.00;6.50;;;;;;;;;;5093088;28;20234;-59
2022/06/30 12:12:49;;;;;;;6.70;6.10;;;;;;;;;;5094317;28;20460;-59
2022/06/30 12:15:18;;;;;;;6.80;6.28;;;;;;;;;;5092758;28;20204;-59
2022/06/30 12:17:46;;;;;;;6.75;6.05;;;;;;;;;;5092384;28;20191;-60
2022/06/30 12:20:15;;;;;;;5.88;5.22;;;;;;;;;;5091027;28;20557;-59
2022/06/30 12:22:43;;;;;;;5.65;5.15;;;;;;;;;;5089720;28;20207;-59
2022/06/30 12:25:11;;;;;;;6.68;5.70;;;;;;;;;;5090526;28;20204;-59
2022/06/30 12:27:43;;;;;;;6.20;5.70;;;;;;;;;;5090949;28;20219;-59
2022/06/30 12:30:12;;;;;;;5.82;5.22;;;;;;;;;;5092008;28;20235;-59
2022/06/30 12:32:39;;;;;;;5.55;5.15;;;;;;;;;;5091676;28;20656;-59
2022/06/30 12:35:10;;;;;;;5.75;5.15;;;;;;;;;;5091588;28;20204;-59
2022/06/30 12:37:39;;;;;;;5.80;5.35;;;;;;;;;;5090849;28;20207;-59
2022/06/30 12:40:08;;;;;;;5.43;5.03;;;;;;;;;;5092159;28;20269;-59
2022/06/30 12:42:44;;;;;;;5.78;5.28;;;;;;;;;;5091844;28;20208;-59
2022/06/30 12:45:41;;;;;;;5.28;4.88;;;;;;;;;;5091776;28;20269;-60
2022/06/30 12:48:10;;;;;;;5.78;5.28;;;;;;;;;;5091397;28;20214;-60
2022/06/30 12:50:39;;;;;;;6.35;5.60;;;;;;;;;;5091379;28;20203;-59
2022/06/30 12:53:16;;;;;;;6.25;5.70;;;;;;;;;;5090675;28;20247;-59
2022/06/30 12:55:56;;;;;;;5.68;5.28;;;;;;;;;;5091572;28;20265;-59
2022/06/30 12:58:25;;;;;;;6.18;5.63;;;;;;;;;;5090601;28;20647;-60
2022/06/30 13:00:58;;;;;;;6.03;5.43;;;;;;;;;;5090493;28;20203;-59
2022/06/30 13:03:25;;;;;;;6.05;5.45;;;;;;;;;;5089930;28;20208;-59
2022/06/30 13:05:53;;;;;;;5.43;5.03;;;;;;;;;;5090786;28;20253;-59
2022/06/30 13:08:21;;;;;;;5.88;5.28;;;;;;;;;;5091760;28;20558;-59
2022/06/30 13:13:47;;;;;;;5.85;5.40;;;;;;;;;;5041444;28;20218;-59
2022/06/30 13:16:15;;;;;;;5.45;5.00;;;;;;;;;;5089558;28;20283;-59
2022/06/30 13:18:43;;;;;;;6.47;5.68;;;;;;;;;;5090688;28;20208;-59
2022/06/30 13:21:11;;;;;;;5.93;5.43;;;;;;;;;;5091747;28;20257;-59
2022/06/30 13:23:38;;;;;;;6.07;5.60;;;;;;;;;;5091622;28;20199;-59
2022/06/30 13:26:06;;;;;;;6.13;5.53;;;;;;;;;;5090240;28;20203;-60
2022/06/30 13:28:33;;;;;;;5.85;5.40;;;;;;;;;;5090871;28;20578;-59
2022/06/30 13:31:02;;;;;;;5.45;5.05;;;;;;;;;;5090655;28;20261;-59
2022/06/30 13:33:31;;;;;;;5.32;4.93;;;;;;;;;;5089769;28;20257;-59
2022/06/30 13:35:59;;;;;;;5.65;5.15;;;;;;;;;;5090341;28;20578;-59
2022/06/30 13:38:26;;;;;;;5.68;5.18;;;;;;;;;;5091640;28;20227;-59
2022/06/30 13:40:54;;;;;;;5.88;5.38;;;;;;;;;;5095403;28;20203;-59
2022/06/30 13:43:22;;;;;;;6.38;5.78;;;;;;;;;;5093356;28;20706;-59
2022/06/30 13:45:49;;;;;;;5.70;5.20;;;;;;;;;;5094264;28;20200;-59
2022/06/30 13:48:18;;;;;;;6.28;5.88;;;;;;;;;;5095158;28;20225;-59
2022/06/30 13:50:46;;;;;;;6.47;5.95;;;;;;;;;;5093732;28;20532;-60
2022/06/30 13:53:14;;;;;;;5.82;5.35;;;;;;;;;;5093987;28;20227;-59
2022/06/30 13:55:41;;;;;;;6.03;5.53;;;;;;;;;;5092976;28;20199;-59
2022/06/30 13:58:11;;;;;;;6.15;5.68;;;;;;;;;;5093215;28;20586;-59
2022/06/30 14:00:38;;;;;;;5.80;5.40;;;;;;;;;;5093824;28;20384;-59
2022/06/30 14:03:07;;;;;;;6.10;5.60;;;;;;;;;;5092758;28;20215;-59
2022/06/30 14:05:36;;;;;;;6.45;5.95;;;;;;;;;;5092918;28;20261;-60
2022/06/30 14:08:03;;;;;;;6.07;5.57;;;;;;;;;;5094091;28;20223;-59
2022/06/30 14:10:31;;;;;;;5.68;5.28;;;;;;;;;;5094985;28;20206;-59
2022/06/30 14:12:58;;;;;;;6.05;5.55;;;;;;;;;;5094806;28;20199;-59
2022/06/30 14:15:26;;;;;;;5.85;5.45;;;;;;;;;;5094891;28;20430;-59
2022/06/30 14:17:54;;;;;;;6.05;5.57;;;;;;;;;;5093127;28;20202;-59
2022/06/30 14:20:22;;;;;;;7.13;6.53;;;;;;;;;;5094371;28;20195;-59
2022/06/30 14:22:52;;;;;;;6.55;6.05;;;;;;;;;;5093866;28;20214;-60
2022/06/30 14:25:20;;;;;;;6.30;5.80;;;;;;;;;;5093080;28;20204;-59
2022/06/30 14:27:47;;;;;;;6.90;6.30;;;;;;;;;;5093916;28;20216;-59
2022/06/30 14:30:15;;;;;;;6.65;6.05;;;;;;;;;;5093120;28;20421;-59
2022/06/30 14:32:43;;;;;;;6.95;6.35;;;;;;;;;;5093593;28;20571;-59
2022/06/30 14:35:11;;;;;;;7.00;6.47;;;;;;;;;;5092746;28;20354;-59
2022/06/30 14:37:38;;;;;;;6.43;5.93;;;;;;;;;;5093483;28;20200;-59
2022/06/30 14:40:10;;;;;;;6.45;5.95;;;;;;;;;;5094859;28;20227;-59
2022/06/30 14:42:47;;;;;;;6.80;6.30;;;;;;;;;;5093358;28;20204;-60
2022/06/30 14:45:17;;;;;;;6.40;5.90;;;;;;;;;;5095184;28;20605;-59
2022/06/30 14:47:45;;;;;;;6.97;6.43;;;;;;;;;;5077096;28;20259;-59
2022/06/30 14:50:13;;;;;;;7.30;6.10;;;;;;;;;;5093941;28;20286;-60
2022/06/30 14:52:41;;;;;;;6.80;6.30;;;;;;;;;;5095389;28;20204;-59
2022/06/30 14:55:10;;;;;;;6.60;6.07;;;;;;;;;;5095984;28;20204;-59
2022/06/30 14:57:40;;;;;;;6.68;6.20;;;;;;;;;;5095291;28;20200;-59
2022/06/30 15:00:09;;;;;;;6.53;6.03;;;;;;;;;;5095831;28;20203;-59